createdAt,value
2022-12-16T00:01:18.853Z,100066.06
2022-12-16T00:03:51.846Z,100067.75
2022-12-16T00:06:19.983Z,100069.44
2022-12-16T00:08:46.671Z,100073.50
2022-12-16T00:11:13.839Z,100071.75
2022-12-16T00:13:40.782Z,100079.28
2022-12-16T00:16:12.572Z,100079.16
2022-12-16T00:18:40.146Z,100082.38
2022-12-16T00:21:07.861Z,100073.56
2022-12-16T00:23:36.448Z,100069.97
2022-12-16T00:26:05.819Z,100076.00
2022-12-16T00:28:32.568Z,100075.81
2022-12-16T00:30:59.708Z,100072.34
2022-12-16T00:33:27.636Z,100076.41
2022-12-16T00:35:54.936Z,100074.56
2022-12-16T00:38:22.728Z,100081.41
2022-12-16T00:40:50.043Z,100082.97
2022-12-16T00:43:19.614Z,100080.31
2022-12-16T00:45:47.045Z,100081.88
2022-12-16T00:48:13.973Z,100092.13
2022-12-16T00:50:40.652Z,100086.06
2022-12-16T00:53:07.317Z,100083.47
2022-12-16T00:55:35.306Z,100082.59
2022-12-16T00:58:01.833Z,100079.91
2022-12-16T01:00:28.379Z,100089.34
2022-12-16T01:02:55.299Z,100085.78
2022-12-16T01:05:26.819Z,100088.25
2022-12-16T01:07:55.199Z,100087.44
2022-12-16T01:10:23.255Z,100092.59
2022-12-16T01:12:50.450Z,100093.19
2022-12-16T01:15:18.819Z,100093.00
2022-12-16T01:17:46.703Z,100098.84
2022-12-16T01:20:15.856Z,100093.50
2022-12-16T01:22:42.468Z,100093.41
2022-12-16T01:25:12.960Z,100094.41
2022-12-16T01:27:40.259Z,100095.28
2022-12-16T01:30:09.044Z,100096.06
2022-12-16T01:32:36.275Z,100102.91
2022-12-16T01:35:02.954Z,100103.72
2022-12-16T01:37:29.673Z,100111.22
2022-12-16T01:39:56.434Z,100109.38
2022-12-16T01:42:23.897Z,100112.63
2022-12-16T01:44:52.252Z,100115.09
2022-12-16T01:47:32.804Z,100108.94
2022-12-16T01:50:04.341Z,100111.44
2022-12-16T01:52:36.611Z,100111.44
2022-12-16T01:55:22.217Z,100108.03
2022-12-16T01:57:55.273Z,100105.47
2022-12-16T02:00:22.230Z,100107.19
2022-12-16T02:02:50.693Z,100114.81
2022-12-16T02:05:20.755Z,100111.25
2022-12-16T02:08:10.298Z,100103.50
2022-12-16T02:10:42.674Z,100099.94
2022-12-16T02:13:33.821Z,100112.00
2022-12-16T02:16:18.702Z,100103.41
2022-12-16T02:19:06.924Z,100106.84
2022-12-16T02:22:07.075Z,100101.31
2022-12-16T02:25:04.616Z,100107.06
2022-12-16T02:27:52.239Z,100106.06
2022-12-16T02:30:27.237Z,100105.06
2022-12-16T02:33:35.337Z,100106.44
2022-12-16T02:36:37.879Z,100101.19
2022-12-16T02:39:18.946Z,100103.75
2022-12-16T02:42:09.107Z,100108.81
2022-12-16T02:44:55.250Z,100096.81
2022-12-16T02:47:22.189Z,100101.97
2022-12-16T02:49:51.739Z,100100.09
2022-12-16T02:52:22.342Z,100098.19
2022-12-16T02:54:53.115Z,100100.66
2022-12-16T02:57:33.699Z,100102.34
2022-12-16T03:00:14.726Z,100097.09
2022-12-16T03:02:57.073Z,100099.66
2022-12-16T03:05:38.669Z,100099.66
2022-12-16T03:08:11.064Z,100107.22
2022-12-16T03:10:45.999Z,100107.06
2022-12-16T03:13:14.613Z,100104.41
2022-12-16T03:15:41.562Z,100099.97
2022-12-16T03:18:12.339Z,100100.63
2022-12-16T03:20:55.625Z,100092.69
2022-12-16T03:23:29.707Z,100096.94
2022-12-16T03:26:05.046Z,100089.13
2022-12-16T03:28:53.541Z,100099.44
2022-12-16T03:31:40.456Z,100100.09
2022-12-16T03:34:14.543Z,100101.59
2022-12-16T03:36:45.266Z,100097.22
2022-12-16T03:39:14.502Z,100096.31
2022-12-16T03:41:44.005Z,100101.47
2022-12-16T03:44:11.658Z,100105.63
2022-12-16T03:46:41.064Z,100100.19
2022-12-16T03:49:07.764Z,100102.53
2022-12-16T03:51:34.467Z,100098.94
2022-12-16T03:54:00.984Z,100103.34
2022-12-16T03:56:27.639Z,100111.81
2022-12-16T03:58:54.350Z,100111.06
2022-12-16T04:01:21.290Z,100115.41
2022-12-16T04:03:48.117Z,100118.88
2022-12-16T04:06:18.996Z,100111.81
2022-12-16T04:08:46.719Z,100121.25
2022-12-16T04:11:33.486Z,100120.44
2022-12-16T04:14:18.809Z,100120.56
2022-12-16T04:17:04.738Z,100128.28
2022-12-16T04:19:53.543Z,100121.16
2022-12-16T04:22:55.642Z,100113.28
2022-12-16T04:25:31.918Z,100121.81
2022-12-16T04:28:00.887Z,100127.06
2022-12-16T04:30:29.128Z,100131.47
2022-12-16T04:33:21.056Z,100140.06
2022-12-16T04:36:13.916Z,100136.47
2022-12-16T04:38:59.272Z,100139.94
2022-12-16T04:41:45.259Z,100145.09
2022-12-16T04:44:47.544Z,100142.63
2022-12-16T04:47:33.038Z,100137.38
2022-12-16T04:50:18.192Z,100145.81
2022-12-16T04:53:03.910Z,100147.47
2022-12-16T04:55:49.538Z,100153.22
2022-12-16T04:58:34.567Z,100154.78
2022-12-16T05:01:20.123Z,100169.13
2022-12-16T05:04:08.320Z,100171.63
2022-12-16T05:06:53.672Z,100174.66
2022-12-16T05:09:41.235Z,100176.13
2022-12-16T05:12:26.397Z,100183.72
2022-12-16T05:15:11.706Z,100178.59
2022-12-16T05:17:56.834Z,100171.72
2022-12-16T05:20:45.077Z,100183.72
2022-12-16T05:23:36.350Z,100175.91
2022-12-16T05:26:21.791Z,100185.97
2022-12-16T05:29:09.662Z,100184.09
2022-12-16T05:31:54.577Z,100182.38
2022-12-16T05:34:40.433Z,100193.69
2022-12-16T05:37:26.240Z,100201.06
2022-12-16T05:40:11.714Z,100197.66
2022-12-16T05:42:56.586Z,100198.81
2022-12-16T05:45:41.862Z,100208.63
2022-12-16T05:48:27.268Z,100202.75
2022-12-16T05:51:12.220Z,100212.31
2022-12-16T05:53:57.484Z,100207.09
2022-12-16T05:56:42.616Z,100205.06
2022-12-16T05:59:27.432Z,100209.03
2022-12-16T06:02:13.139Z,100213.03
2022-12-16T06:05:01.250Z,100219.28
2022-12-16T06:07:46.357Z,100208.69
2022-12-16T06:10:31.865Z,100224.66
2022-12-16T06:13:16.877Z,100214.78
2022-12-16T06:16:08.134Z,100218.63
2022-12-16T06:18:54.117Z,100225.31
2022-12-16T06:21:39.237Z,100226.69
2022-12-16T06:24:24.967Z,100231.53
2022-12-16T06:27:10.322Z,100226.19
2022-12-16T06:29:55.441Z,100230.16
2022-12-16T06:32:40.561Z,100227.97
2022-12-16T06:35:36.526Z,100236.91
2022-12-16T06:38:21.609Z,100240.56
2022-12-16T06:41:06.695Z,100236.41
2022-12-16T06:43:52.016Z,100243.66
2022-12-16T06:46:37.167Z,100252.50
2022-12-16T06:49:22.891Z,100255.16
2022-12-16T06:52:10.886Z,100263.06
2022-12-16T06:54:56.867Z,100264.91
2022-12-16T06:57:42.672Z,100270.25
2022-12-16T07:00:28.440Z,100280.81
2022-12-16T07:03:13.829Z,100291.94
2022-12-16T07:05:59.048Z,100280.59
2022-12-16T07:08:44.105Z,100291.06
2022-12-16T07:11:29.650Z,100289.06
2022-12-16T07:14:15.092Z,100300.66
2022-12-16T07:17:00.278Z,100311.13
2022-12-16T07:19:59.030Z,100309.13
2022-12-16T07:22:44.439Z,100315.09
2022-12-16T07:25:29.703Z,100317.69
2022-12-16T07:28:15.838Z,100323.03
2022-12-16T07:31:01.892Z,100323.22
2022-12-16T07:33:47.159Z,100328.81
2022-12-16T07:36:34.332Z,100339.84
2022-12-16T07:39:23.889Z,100346.41
2022-12-16T07:42:09.156Z,100348.59
2022-12-16T07:44:54.446Z,100361.69
2022-12-16T07:47:39.519Z,100373.03
2022-12-16T07:50:27.604Z,100374.81
2022-12-16T07:53:14.509Z,100385.56
2022-12-16T07:55:59.972Z,100387.06
2022-12-16T07:58:45.286Z,100391.91
2022-12-16T08:01:30.960Z,100394.50
2022-12-16T08:04:16.134Z,100394.25
2022-12-16T08:07:01.567Z,100410.59
2022-12-16T08:10:03.458Z,100415.53
2022-12-16T08:12:48.403Z,100416.28
2022-12-16T08:15:33.407Z,100417.84
2022-12-16T08:18:18.885Z,100413.16
2022-12-16T08:21:03.949Z,100426.41
2022-12-16T08:23:49.149Z,100422.31
2022-12-16T08:26:34.474Z,100437.19
2022-12-16T08:29:42.989Z,100432.41
2022-12-16T08:32:24.729Z,100443.25
2022-12-16T08:35:09.838Z,100451.56
2022-12-16T08:37:54.678Z,100452.03
2022-12-16T08:40:40.928Z,100451.88
2022-12-16T08:43:25.937Z,100465.28
2022-12-16T08:46:13.078Z,100465.84
2022-12-16T08:48:58.839Z,100459.44
2022-12-16T08:51:43.790Z,100464.09
2022-12-16T08:54:42.916Z,100470.59
2022-12-16T08:57:27.984Z,100475.09
2022-12-16T09:00:12.818Z,100474.56
2022-12-16T09:03:08.846Z,100479.28
2022-12-16T09:05:54.370Z,100472.84
2022-12-16T09:08:39.471Z,100474.91
2022-12-16T09:11:24.664Z,100479.38
2022-12-16T09:14:09.875Z,100479.53
2022-12-16T09:16:55.045Z,100480.91
2022-12-16T09:19:39.970Z,100476.25
2022-12-16T09:22:25.076Z,100480.22
2022-12-16T09:25:10.375Z,100479.22
2022-12-16T09:27:55.568Z,100479.94
2022-12-16T09:30:41.369Z,100484.81
2022-12-16T09:33:26.666Z,100482.22
2022-12-16T09:36:11.598Z,100484.34
2022-12-16T09:38:56.818Z,100483.00
2022-12-16T09:41:46.849Z,100494.69
2022-12-16T09:44:44.859Z,100494.63
2022-12-16T09:48:03.190Z,100496.75
2022-12-16T09:50:51.799Z,100490.91
2022-12-16T09:53:40.540Z,100503.19
2022-12-16T09:56:37.796Z,100497.31
2022-12-16T09:59:33.920Z,100495.41
2022-12-16T10:02:19.909Z,100492.38
2022-12-16T10:05:10.693Z,100484.25
2022-12-16T10:08:04.901Z,100496.94
2022-12-16T10:10:59.122Z,100499.69
2022-12-16T10:13:53.241Z,100499.69
2022-12-16T10:17:07.887Z,100502.28
2022-12-16T10:20:15.869Z,100505.13
2022-12-16T10:23:12.397Z,100507.97
2022-12-16T10:26:11.365Z,100509.84
2022-12-16T10:29:11.632Z,100512.53
2022-12-16T10:31:56.897Z,100513.50
2022-12-16T10:34:48.054Z,100515.38
2022-12-16T10:37:41.141Z,100514.03
2022-12-16T10:40:34.991Z,100519.56
2022-12-16T10:43:24.184Z,100509.31
2022-12-16T10:46:12.914Z,100519.78
2022-12-16T10:48:58.446Z,100521.09
2022-12-16T10:51:48.634Z,100523.03
2022-12-16T10:54:40.015Z,100517.47
2022-12-16T10:57:37.821Z,100521.50
2022-12-16T11:00:58.316Z,100514.06
2022-12-16T11:03:50.353Z,100528.94
2022-12-16T11:06:49.436Z,100524.56
2022-12-16T11:09:47.201Z,100523.72
2022-12-16T11:12:55.593Z,100524.50
2022-12-16T11:15:45.813Z,100526.06
2022-12-16T11:18:41.448Z,100525.09
2022-12-16T11:21:39.390Z,100527.81
2022-12-16T11:24:32.533Z,100533.34
2022-12-16T11:27:23.894Z,100513.78
2022-12-16T11:30:11.896Z,100526.06
2022-12-16T11:33:00.733Z,100531.19
2022-12-16T11:35:49.373Z,100534.91
2022-12-16T11:38:43.566Z,100538.56
2022-12-16T11:41:46.883Z,100532.75
2022-12-16T11:44:45.373Z,100539.91
2022-12-16T11:48:06.278Z,100541.69
2022-12-16T11:50:55.677Z,100538.28
2022-12-16T11:54:07.278Z,100536.13
2022-12-16T11:56:59.326Z,100539.91
2022-12-16T11:59:52.989Z,100547.91
2022-12-16T12:03:38.508Z,100547.56
2022-12-16T12:06:43.859Z,100555.81
2022-12-16T12:09:38.480Z,100548.19
2022-12-16T12:12:42.946Z,100542.38
2022-12-16T12:15:53.903Z,100546.25
2022-12-16T12:19:11.798Z,100553.41
2022-12-16T12:22:23.531Z,100556.16
2022-12-16T12:25:26.442Z,100559.72
2022-12-16T12:28:23.834Z,100563.34
2022-12-16T12:31:16.918Z,100558.06
2022-12-16T12:34:22.018Z,100559.91
2022-12-16T12:40:47.203Z,100559.31
2022-12-16T12:44:16.094Z,100556.94
2022-12-16T12:47:24.133Z,100564.22
2022-12-16T12:50:22.318Z,100562.75
2022-12-16T12:53:25.810Z,100567.22
2022-12-16T12:56:23.648Z,100572.50
2022-12-16T12:59:13.469Z,100576.09
2022-12-16T13:02:05.101Z,100581.31
2022-12-16T13:04:52.569Z,100585.56
2022-12-16T13:07:39.402Z,100584.72
2022-12-16T13:10:33.899Z,100574.38
2022-12-16T13:13:49.072Z,100589.00
2022-12-16T13:17:05.176Z,100579.50
2022-12-16T13:19:50.762Z,100580.34
2022-12-16T13:22:50.608Z,100591.75
2022-12-16T13:25:51.450Z,100598.00
2022-12-16T13:28:45.397Z,100597.03
2022-12-16T13:31:34.684Z,100602.19
2022-12-16T13:34:42.488Z,100602.19
2022-12-16T13:37:47.888Z,100603.97
2022-12-16T13:40:42.421Z,100608.16
2022-12-16T13:44:06.170Z,100616.03
2022-12-16T13:47:29.167Z,100612.63
2022-12-16T13:50:14.061Z,100622.22
2022-12-16T13:52:59.070Z,100621.25
2022-12-16T13:55:52.244Z,100626.28
2022-12-16T13:59:00.644Z,100633.00
2022-12-16T14:01:55.685Z,100637.19
2022-12-16T14:05:12.825Z,100629.06
2022-12-16T14:08:02.095Z,100635.78
2022-12-16T14:10:51.911Z,100641.00
2022-12-16T14:13:57.534Z,100644.41
2022-12-16T14:16:57.466Z,100639.97
2022-12-16T14:20:20.658Z,100651.97
2022-12-16T14:23:39.111Z,100665.03
2022-12-16T14:26:22.301Z,100662.47
2022-12-16T14:29:10.484Z,100662.47
2022-12-16T14:32:08.959Z,100665.16
2022-12-16T14:34:55.371Z,100672.19
2022-12-16T14:37:40.572Z,100680.06
2022-12-16T14:40:46.753Z,100687.06
2022-12-16T14:43:36.685Z,100691.31
2022-12-16T14:46:22.023Z,100703.50
2022-12-16T14:49:08.833Z,100702.59
2022-12-16T14:52:05.993Z,100717.47
2022-12-16T14:54:57.344Z,100708.69
2022-12-16T14:57:45.093Z,100708.59
2022-12-16T15:00:53.400Z,100706.75
2022-12-16T15:03:49.515Z,100708.25
2022-12-16T15:06:42.858Z,100710.03
2022-12-16T15:09:36.313Z,100711.91
2022-12-16T15:12:21.746Z,100720.59
2022-12-16T15:15:07.614Z,100718.00
2022-12-16T15:18:03.298Z,100716.28
2022-12-16T15:20:52.128Z,100721.75
2022-12-16T15:24:00.393Z,100726.13
2022-12-16T15:26:48.636Z,100725.28
2022-12-16T15:29:58.966Z,100729.78
2022-12-16T15:32:44.126Z,100728.88
2022-12-16T15:35:30.210Z,100740.28
2022-12-16T15:38:15.253Z,100743.88
2022-12-16T15:41:00.221Z,100738.66
2022-12-16T15:43:50.876Z,100742.91
2022-12-16T15:46:45.896Z,100753.47
2022-12-16T15:50:03.873Z,100752.72
2022-12-16T15:53:01.899Z,100752.66
2022-12-16T15:55:59.488Z,100751.63
2022-12-16T15:58:51.587Z,100759.53
2022-12-16T16:01:43.849Z,100764.88
2022-12-16T16:04:45.714Z,100772.63
2022-12-16T16:07:38.317Z,100768.97
2022-12-16T16:10:43.441Z,100774.84
2022-12-16T16:13:28.781Z,100777.47
2022-12-16T16:16:14.448Z,100773.91
2022-12-16T16:19:01.069Z,100781.56
2022-12-16T16:21:47.673Z,100790.38
2022-12-16T16:24:33.459Z,100799.16
2022-12-16T16:27:20.728Z,100796.50
2022-12-16T16:30:06.166Z,100789.41
2022-12-16T16:32:51.819Z,100803.22
2022-12-16T16:35:37.342Z,100803.28
2022-12-16T16:38:22.724Z,100802.44
2022-12-16T16:41:08.114Z,100796.25
2022-12-16T16:43:53.380Z,100803.22
2022-12-16T16:46:38.656Z,100800.59
2022-12-16T16:49:28.087Z,100806.75
2022-12-16T16:52:13.822Z,100812.88
2022-12-16T16:54:59.049Z,100812.88
2022-12-16T16:57:49.552Z,100818.28
2022-12-16T17:00:35.344Z,100814.81
2022-12-16T17:03:20.886Z,100812.22
2022-12-16T17:06:06.434Z,100806.75
2022-12-16T17:08:51.728Z,100820.69
2022-12-16T17:11:39.358Z,100813.84
2022-12-16T17:14:28.530Z,100816.59
2022-12-16T17:17:14.439Z,100826.91
2022-12-16T17:19:59.704Z,100828.59
2022-12-16T17:22:45.217Z,100819.97
2022-12-16T17:25:32.405Z,100825.13
2022-12-16T17:28:18.652Z,100833.59
2022-12-16T17:31:03.934Z,100842.16
2022-12-16T17:33:48.872Z,100848.78
2022-12-16T17:36:36.438Z,100848.22
2022-12-16T17:39:23.695Z,100849.69
2022-12-16T17:42:09.034Z,100848.34
2022-12-16T17:44:54.366Z,100846.13
2022-12-16T17:47:41.815Z,100852.50
2022-12-16T17:50:27.566Z,100857.28
2022-12-16T17:53:37.193Z,100849.63
2022-12-16T17:56:24.192Z,100853.75
2022-12-16T17:59:11.124Z,100859.03
2022-12-16T18:02:16.109Z,100866.47
2022-12-16T18:05:01.448Z,100875.75
2022-12-16T18:07:46.642Z,100894.59
2022-12-16T18:10:31.668Z,100891.56
2022-12-16T18:13:17.009Z,100901.72
2022-12-16T18:16:02.396Z,100899.75
2022-12-16T18:18:47.485Z,100895.19
2022-12-16T18:21:33.185Z,100901.91
2022-12-16T18:24:18.141Z,100896.81
2022-12-16T18:27:03.480Z,100901.19
2022-12-16T18:29:48.418Z,100905.41
2022-12-16T18:32:35.377Z,100902.81
2022-12-16T18:35:21.092Z,100901.81
2022-12-16T18:38:06.272Z,100907.78
2022-12-16T18:40:52.020Z,100905.25
2022-12-16T18:43:37.443Z,100901.66
2022-12-16T18:46:23.137Z,100916.28
2022-12-16T18:49:09.470Z,100924.09
2022-12-16T18:51:54.898Z,100930.13
2022-12-16T18:54:57.521Z,100937.09
2022-12-16T18:57:43.218Z,100927.53
2022-12-16T19:00:28.998Z,100928.41
2022-12-16T19:03:14.688Z,100941.50
2022-12-16T19:06:00.123Z,100937.19
2022-12-16T19:08:47.790Z,100941.69
2022-12-16T19:11:32.868Z,100946.91
2022-12-16T19:14:18.174Z,100950.28
2022-12-16T19:17:04.071Z,100957.84
2022-12-16T19:19:49.009Z,100950.56
2022-12-16T19:22:34.103Z,100949.56
2022-12-16T19:25:19.374Z,100959.81
2022-12-16T19:28:04.727Z,100972.00
2022-12-16T19:30:50.237Z,100966.00
2022-12-16T19:33:35.662Z,100957.13
2022-12-16T19:36:21.119Z,100963.94
2022-12-16T19:39:06.217Z,100966.63
2022-12-16T19:41:51.185Z,100961.41
2022-12-16T19:44:36.883Z,100964.19
2022-12-16T19:47:22.416Z,100971.28
2022-12-16T19:50:08.059Z,100967.88
2022-12-16T19:52:56.111Z,100973.91
2022-12-16T19:55:41.280Z,100972.16
2022-12-16T19:58:26.647Z,100977.28
2022-12-16T20:01:11.919Z,100986.81
2022-12-16T20:03:57.287Z,100981.63
2022-12-16T20:06:42.281Z,100987.53
2022-12-16T20:09:27.461Z,101001.22
2022-12-16T20:12:12.704Z,100986.28
2022-12-16T20:14:57.765Z,100995.69
2022-12-16T20:17:43.044Z,101002.56
2022-12-16T20:20:28.417Z,101002.66
2022-12-16T20:23:14.411Z,101001.66
2022-12-16T20:25:59.930Z,101017.38
2022-12-16T20:28:44.841Z,101012.38
2022-12-16T20:31:30.173Z,101017.75
2022-12-16T20:34:15.785Z,101013.63
2022-12-16T20:37:02.724Z,101019.75
2022-12-16T20:39:56.521Z,101027.25
2022-12-16T20:42:44.210Z,101023.78
2022-12-16T20:45:30.278Z,101032.66
2022-12-16T20:48:15.764Z,101036.44
2022-12-16T20:51:01.132Z,101041.81
2022-12-16T20:53:47.133Z,101045.47
2022-12-16T20:56:31.991Z,101048.19
2022-12-16T20:59:17.453Z,101051.69
2022-12-16T21:02:22.608Z,101050.78
2022-12-16T21:05:07.690Z,101044.69
2022-12-16T21:07:53.645Z,101048.19
2022-12-16T21:10:38.677Z,101052.59
2022-12-16T21:13:35.525Z,101055.09
2022-12-16T21:16:23.850Z,101052.22
2022-12-16T21:19:09.160Z,101064.06
2022-12-16T21:21:54.826Z,101065.84
2022-12-16T21:24:42.063Z,101064.22
2022-12-16T21:27:27.391Z,101073.03
2022-12-16T21:30:12.541Z,101075.63
2022-12-16T21:32:58.288Z,101081.81
2022-12-16T21:35:43.747Z,101081.13
2022-12-16T21:38:30.625Z,101083.91
2022-12-16T21:41:16.611Z,101087.41
2022-12-16T21:44:02.043Z,101085.59
2022-12-16T21:46:47.390Z,101094.22
2022-12-16T21:49:32.294Z,101097.53
2022-12-16T21:52:17.240Z,101095.84
2022-12-16T21:55:02.322Z,101094.06
2022-12-16T21:57:47.526Z,101102.81
2022-12-16T22:00:33.305Z,101096.75
2022-12-16T22:03:18.513Z,101102.66
2022-12-16T22:06:03.566Z,101093.84
2022-12-16T22:08:49.331Z,101098.16
2022-12-16T22:11:34.411Z,101093.66
2022-12-16T22:14:19.798Z,101105.75
2022-12-16T22:17:06.047Z,101106.50
2022-12-16T22:19:51.763Z,101113.91
2022-12-16T22:22:37.007Z,101122.63
2022-12-16T22:25:23.092Z,101115.81
2022-12-16T22:28:08.669Z,101111.31
2022-12-16T22:34:00.201Z,101131.31
2022-12-16T22:36:45.434Z,101130.44
2022-12-16T22:39:30.385Z,101140.94
2022-12-16T22:42:15.851Z,101138.41
2022-12-16T22:45:01.120Z,101135.72
2022-12-16T22:47:46.575Z,101140.72
2022-12-16T22:50:32.192Z,101140.72
2022-12-16T22:53:17.783Z,101140.09
2022-12-16T22:56:09.586Z,101133.31
2022-12-16T22:58:55.029Z,101137.50
2022-12-16T23:01:42.306Z,101150.16
2022-12-16T23:04:28.132Z,101151.84
2022-12-16T23:07:13.586Z,101147.56
2022-12-16T23:09:59.239Z,101156.22
2022-12-16T23:12:44.149Z,101148.53
2022-12-16T23:15:30.416Z,101151.44
2022-12-16T23:18:15.943Z,101153.22
2022-12-16T23:21:09.803Z,101160.75
2022-12-16T23:23:57.009Z,101156.97
2022-12-16T23:27:02.601Z,101156.56
2022-12-16T23:29:47.908Z,101166.16
2022-12-16T23:32:31.267Z,101128.72
2022-12-16T23:35:23.718Z,101168.16
2022-12-16T23:38:08.724Z,101165.75
2022-12-16T23:40:56.137Z,101161.53
2022-12-16T23:43:42.860Z,101162.94
2022-12-16T23:46:28.425Z,101149.59
2022-12-16T23:49:13.770Z,101150.66
2022-12-16T23:51:59.324Z,101155.66
2022-12-16T23:54:44.569Z,101159.84
2022-12-16T23:57:29.738Z,101163.47
